Fisktrans — LIAB — position and weather

sailwx.info

Track history (hours):
 
Tides and Currents Weather Stations Pressure Air Temp Water Temp Dewpoint Dewpoint Depression Visibility Wind Speed Wind Dir Waves Ship Positions

Fisktrans

Last reported at 2015-Aug-23 13:05 UTC. Time now 2015-Aug-31 02:34 UTC.
Position N 69°44' E 019°03'.

Length 74 m; draft 6.5 m.

Type: Cargo ship. MMSI: 258034000.

Date/timePositionNaut miles runAvg speedWind from/ knotsBaromVisibWave heightAir tempDewpointWater temp
2015-Aug-23 13:05N 69°44' E 019°03'510.0
2015-Aug-23 12:34N 69°39' E 018°58'0 0.1
2015-Aug-23 11:33N 69°39' E 018°58'0 0.0
2015-Aug-23 10:33N 69°39' E 018°58'0 0.0
2015-Aug-23 09:33N 69°39' E 018°58'0 0.0
2015-Aug-23 08:33N 69°39' E 018°58'0 0.0
2015-Aug-23 07:33N 69°39' E 018°58'0 0.0
2015-Aug-23 06:33N 69°39' E 018°58'0 0.0
2015-Aug-23 05:33N 69°39' E 018°58'0 0.0
2015-Aug-23 04:33N 69°39' E 018°58'0 0.0
2015-Aug-23 03:33N 69°39' E 018°58'0 0.0
2015-Aug-23 02:33N 69°39' E 018°58'0 0.0
2015-Aug-23 01:33N 69°39' E 018°58'0 0.0
2015-Aug-22 23:33N 69°39' E 018°58'0 0.0
2015-Aug-22 22:33N 69°39' E 018°58'0 0.0
2015-Aug-22 21:33N 69°39' E 018°58'0 0.0
2015-Aug-22 20:33N 69°39' E 018°58'0 0.0
2015-Aug-22 19:33N 69°39' E 018°58'0 0.0
2015-Aug-22 18:33N 69°39' E 018°58'0 0.0
2015-Aug-22 17:33N 69°39' E 018°58'0 0.0
2015-Aug-22 16:33N 69°39' E 018°58'0 0.0
2015-Aug-22 15:33N 69°39' E 018°58'0 0.0
2015-Aug-22 14:33N 69°39' E 018°58'0 0.0
2015-Aug-22 13:33N 69°39' E 018°58'0 0.0
2015-Aug-22 12:33N 69°39' E 018°58'0 0.0
2015-Aug-22 11:33N 69°39' E 018°58'0 0.0
2015-Aug-22 10:33N 69°39' E 018°58'0 0.0
2015-Aug-22 09:34N 69°39' E 018°58'0 0.0
2015-Aug-22 08:33N 69°39' E 018°58'3 2.5
2015-Aug-22 07:33N 69°41' E 019°02'  
2015-Aug-18 11:32N 67°29' E 013°23'1010.1
2015-Aug-18 10:33N 67°23' E 013°44'5 4.8
2015-Aug-18 09:33N 67°22' E 013°56'226 4.7
2015-Aug-16 09:11N 64°01' E 009°44'610.0
2015-Aug-16 08:33N 63°55' E 009°47'1010.2
2015-Aug-16 07:33N 63°47' E 009°33'3 3.4
2015-Aug-16 06:33N 63°44' E 009°35'0 0.0
2015-Aug-16 05:33N 63°44' E 009°35'0 0.0
2015-Aug-16 04:33N 63°44' E 009°35'0 0.0
2015-Aug-16 03:33N 63°44' E 009°35'0 0.0
2015-Aug-16 02:33N 63°44' E 009°35'0 0.0
2015-Aug-16 01:33N 63°44' E 009°35'0 0.0
2015-Aug-16 00:33N 63°44' E 009°35'0 0.0
2015-Aug-15 23:33N 63°44' E 009°35'0 0.0
2015-Aug-15 22:33N 63°44' E 009°35'0 0.0
2015-Aug-15 21:33N 63°44' E 009°35'0 0.0
2015-Aug-15 20:33N 63°44' E 009°35'0 0.0
2015-Aug-15 18:25N 63°44' E 009°35'6 5.6
2015-Aug-15 17:21N 63°45' E 009°22'  
Track history (hours):
 
Tides and Currents Weather Stations Pressure Air Temp Water Temp Dewpoint Dewpoint Depression Visibility Wind Speed Wind Dir Waves Ship Positions

Fisktrans

Last reported at 2015-Aug-23 13:05 UTC. Time now 2015-Aug-31 02:34 UTC.
Position N 69°44' E 019°03'.

Length 74 m; draft 6.5 m.

Type: Cargo ship. MMSI: 258034000.

Date/timePositionNaut miles runAvg speedWind from/ knotsBaromVisibWave heightAir tempDewpointWater temp
2015-Aug-23 13:05N 69°44' E 019°03'510.0
2015-Aug-23 12:34N 69°39' E 018°58'0 0.1
2015-Aug-23 11:33N 69°39' E 018°58'0 0.0
2015-Aug-23 10:33N 69°39' E 018°58'0 0.0
2015-Aug-23 09:33N 69°39' E 018°58'0 0.0
2015-Aug-23 08:33N 69°39' E 018°58'0 0.0
2015-Aug-23 07:33N 69°39' E 018°58'0 0.0
2015-Aug-23 06:33N 69°39' E 018°58'0 0.0
2015-Aug-23 05:33N 69°39' E 018°58'0 0.0
2015-Aug-23 04:33N 69°39' E 018°58'0 0.0
2015-Aug-23 03:33N 69°39' E 018°58'0 0.0
2015-Aug-23 02:33N 69°39' E 018°58'0 0.0
2015-Aug-23 01:33N 69°39' E 018°58'0 0.0
2015-Aug-22 23:33N 69°39' E 018°58'0 0.0
2015-Aug-22 22:33N 69°39' E 018°58'0 0.0
2015-Aug-22 21:33N 69°39' E 018°58'0 0.0
2015-Aug-22 20:33N 69°39' E 018°58'0 0.0
2015-Aug-22 19:33N 69°39' E 018°58'0 0.0
2015-Aug-22 18:33N 69°39' E 018°58'0 0.0
2015-Aug-22 17:33N 69°39' E 018°58'0 0.0
2015-Aug-22 16:33N 69°39' E 018°58'0 0.0
2015-Aug-22 15:33N 69°39' E 018°58'0 0.0
2015-Aug-22 14:33N 69°39' E 018°58'0 0.0
2015-Aug-22 13:33N 69°39' E 018°58'0 0.0
2015-Aug-22 12:33N 69°39' E 018°58'0 0.0
2015-Aug-22 11:33N 69°39' E 018°58'0 0.0
2015-Aug-22 10:33N 69°39' E 018°58'0 0.0
2015-Aug-22 09:34N 69°39' E 018°58'0 0.0
2015-Aug-22 08:33N 69°39' E 018°58'3 2.5
2015-Aug-22 07:33N 69°41' E 019°02'  
2015-Aug-18 11:32N 67°29' E 013°23'1010.1
2015-Aug-18 10:33N 67°23' E 013°44'5 4.8
2015-Aug-18 09:33N 67°22' E 013°56'226 4.7
2015-Aug-16 09:11N 64°01' E 009°44'610.0
2015-Aug-16 08:33N 63°55' E 009°47'1010.2
2015-Aug-16 07:33N 63°47' E 009°33'3 3.4
2015-Aug-16 06:33N 63°44' E 009°35'0 0.0
2015-Aug-16 05:33N 63°44' E 009°35'0 0.0
2015-Aug-16 04:33N 63°44' E 009°35'0 0.0
2015-Aug-16 03:33N 63°44' E 009°35'0 0.0
2015-Aug-16 02:33N 63°44' E 009°35'0 0.0
2015-Aug-16 01:33N 63°44' E 009°35'0 0.0
2015-Aug-16 00:33N 63°44' E 009°35'0 0.0
2015-Aug-15 23:33N 63°44' E 009°35'0 0.0
2015-Aug-15 22:33N 63°44' E 009°35'0 0.0
2015-Aug-15 21:33N 63°44' E 009°35'0 0.0
2015-Aug-15 20:33N 63°44' E 009°35'0 0.0
2015-Aug-15 18:25N 63°44' E 009°35'6 5.6
2015-Aug-15 17:21N 63°45' E 009°22'  

Dump ship's entire track history